Terminal Aerodrome Forecast
Issued by NWS

Home | Current Version | Previous Version | Text Only | Print | Product List | Glossary On
Versions: 1 2 3 4 5 6 7 8 9 10 11 12 13 14 15
000
FTUS45 KBOI 252001 AAB
TAFJER
TAF AMD
KJER 252001Z 2520/2618 15012KT P6SM BKN250
     FM252300 24010KT P6SM BKN250
     FM261400 24015G25KT P6SM VCSH SCT070 BKN100=

USA.gov is the U.S. government's official web portal to all federal, state and local government web resources and services.